Terminal Aerodrome Forecast
Issued by NWS Houston/Galveston TX

Home | Current Version | Previous Version | Text Only | Print | Product List | Glossary On
Versions: 1 2 3 4 5 6 7 8 9 10 11 12 13 14 15 16 17 18 19 20 21 22 23 24 25 26 27 28 29 30 31
000
FTUS44 KHGX 271518 AAA
TAFHOU
TAF AMD
KHOU 271518Z 2715/2812 18012G20KT P6SM SCT021 BKN028 BKN250
     FM271700 18013G23KT P6SM BKN035
     FM280300 17009KT P6SM BKN015 OVC030
     FM280700 19007KT P6SM OVC010=

USA.gov is the U.S. government's official web portal to all federal, state and local government web resources and services.